createdAt,value
2023-05-13T00:00:45.704Z,54.03
2023-05-13T00:03:17.611Z,54.22
2023-05-13T00:05:49.323Z,54.47
2023-05-13T00:08:21.232Z,55.05
2023-05-13T00:10:54.863Z,54.74
2023-05-13T00:13:26.717Z,55.38
2023-05-13T00:15:58.625Z,55.62
2023-05-13T00:18:30.496Z,55.58
2023-05-13T00:21:02.388Z,55.58
2023-05-13T00:23:34.250Z,55.50
2023-05-13T00:26:08.063Z,55.90
2023-05-13T00:28:39.973Z,55.80
2023-05-13T00:31:11.991Z,55.97
2023-05-13T00:33:43.879Z,56.01
2023-05-13T00:36:15.924Z,55.91
2023-05-13T00:38:47.961Z,56.18
2023-05-13T00:41:21.766Z,55.76
2023-05-13T00:43:54.768Z,56.13
2023-05-13T00:46:26.793Z,56.46
2023-05-13T00:48:59.216Z,56.57
2023-05-13T00:51:32.539Z,56.16
2023-05-13T00:54:05.408Z,56.76
2023-05-13T00:56:40.879Z,57.59
2023-05-13T00:59:12.490Z,57.60
2023-05-13T01:01:55.060Z,57.96
2023-05-13T01:04:38.310Z,59.05
2023-05-13T01:07:23.368Z,58.10
2023-05-13T01:10:20.916Z,57.94
2023-05-13T01:13:03.934Z,58.95
2023-05-13T01:15:40.747Z,59.21
2023-05-13T01:18:20.798Z,59.01
2023-05-13T01:20:54.113Z,59.78
2023-05-13T01:23:27.300Z,60.13
2023-05-13T01:25:59.129Z,59.95
2023-05-13T01:28:31.766Z,61.00
2023-05-13T01:31:03.627Z,60.51
2023-05-13T01:33:35.985Z,61.19
2023-05-13T01:36:09.929Z,61.26
2023-05-13T01:38:45.030Z,60.61
2023-05-13T01:41:17.107Z,60.58
2023-05-13T01:43:49.023Z,60.18
2023-05-13T01:46:21.577Z,60.13
2023-05-13T01:48:53.962Z,60.00
2023-05-13T01:51:26.023Z,60.89
2023-05-13T01:53:59.056Z,59.97
2023-05-13T01:56:31.422Z,60.91
2023-05-13T01:59:03.292Z,60.42
2023-05-13T02:01:35.259Z,61.76
2023-05-13T02:04:07.280Z,61.41
2023-05-13T02:06:39.728Z,61.39
2023-05-13T02:09:12.898Z,61.20
2023-05-13T02:11:44.582Z,61.59
2023-05-13T02:14:16.612Z,62.22
2023-05-13T02:16:48.291Z,61.70
2023-05-13T02:19:20.804Z,62.60
2023-05-13T02:21:52.757Z,62.10
2023-05-13T02:24:26.616Z,62.34
2023-05-13T02:26:58.175Z,62.83
2023-05-13T02:29:30.048Z,62.67
2023-05-13T02:32:03.441Z,62.55
2023-05-13T02:34:35.147Z,62.23
2023-05-13T02:37:08.481Z,62.24
2023-05-13T02:39:41.418Z,62.92
2023-05-13T02:42:13.423Z,63.05
2023-05-13T02:44:45.881Z,62.71
2023-05-13T02:47:17.472Z,63.12
2023-05-13T02:49:49.315Z,62.90
2023-05-13T02:52:21.217Z,63.01
2023-05-13T02:54:54.405Z,62.83
2023-05-13T02:57:26.248Z,63.65
2023-05-13T02:59:58.145Z,63.91
2023-05-13T03:02:29.894Z,63.77
2023-05-13T03:05:01.650Z,63.46
2023-05-13T03:07:33.472Z,63.71
2023-05-13T03:10:06.696Z,64.08
2023-05-13T03:12:38.448Z,64.57
2023-05-13T03:15:12.131Z,64.27
2023-05-13T03:17:44.429Z,64.43
2023-05-13T03:20:17.665Z,64.63
2023-05-13T03:22:49.490Z,64.58
2023-05-13T03:25:22.466Z,64.21
2023-05-13T03:27:55.220Z,64.22
2023-05-13T03:30:27.156Z,65.20
2023-05-13T03:32:59.151Z,64.83
2023-05-13T03:35:31.018Z,64.80
2023-05-13T03:38:02.874Z,65.14
2023-05-13T03:40:36.133Z,64.85
2023-05-13T03:43:08.086Z,65.11
2023-05-13T03:45:39.945Z,64.97
2023-05-13T03:48:12.755Z,65.74
2023-05-13T03:50:44.432Z,65.40
2023-05-13T03:53:16.866Z,65.29
2023-05-13T03:55:49.869Z,64.90
2023-05-13T03:58:22.717Z,65.79
2023-05-13T04:00:54.793Z,66.17
2023-05-13T04:03:26.728Z,66.36
2023-05-13T04:05:58.550Z,66.16
2023-05-13T04:08:30.376Z,66.78
2023-05-13T04:11:03.789Z,65.74
2023-05-13T04:13:35.634Z,66.28
2023-05-13T04:16:07.592Z,66.11
2023-05-13T04:18:39.396Z,65.92
2023-05-13T04:21:12.768Z,66.48
2023-05-13T04:23:44.605Z,66.16
2023-05-13T04:26:17.584Z,66.47
2023-05-13T04:28:49.417Z,66.26
2023-05-13T04:31:21.935Z,66.75
2023-05-13T04:33:53.609Z,66.38
2023-05-13T04:36:25.478Z,67.34
2023-05-13T04:38:57.310Z,66.58
2023-05-13T04:41:30.549Z,66.20
2023-05-13T04:44:02.538Z,66.55
2023-05-13T04:46:34.173Z,66.74
2023-05-13T04:49:06.068Z,66.72
2023-05-13T04:51:38.176Z,67.20
2023-05-13T04:54:10.809Z,67.52
2023-05-13T04:56:44.044Z,68.04
2023-05-13T04:59:15.959Z,67.58
2023-05-13T05:01:49.045Z,67.40
2023-05-13T05:04:20.935Z,67.77
2023-05-13T05:06:52.786Z,68.02
2023-05-13T05:09:24.488Z,68.22
2023-05-13T05:11:57.545Z,68.53
2023-05-13T05:14:29.320Z,67.88
2023-05-13T05:17:01.167Z,68.13
2023-05-13T05:19:33.296Z,67.25
2023-05-13T05:22:05.113Z,67.52
2023-05-13T05:24:36.906Z,67.40
2023-05-13T05:27:10.335Z,67.80
2023-05-13T05:29:42.976Z,67.26
2023-05-13T05:32:14.715Z,67.44
2023-05-13T05:34:46.569Z,67.43
2023-05-13T05:37:18.450Z,66.83
2023-05-13T05:39:50.320Z,67.94
2023-05-13T05:42:23.615Z,67.57
2023-05-13T05:44:55.581Z,68.10
2023-05-13T05:47:27.507Z,67.92
2023-05-13T05:49:59.496Z,67.72
2023-05-13T05:52:31.320Z,67.40
2023-05-13T05:55:03.428Z,68.64
2023-05-13T05:57:36.390Z,68.33
2023-05-13T06:00:10.633Z,68.15
2023-05-13T06:02:42.435Z,68.82
2023-05-13T06:05:14.403Z,68.34
2023-05-13T06:07:46.310Z,68.08
2023-05-13T06:10:18.390Z,69.48
2023-05-13T06:12:52.132Z,68.87
2023-05-13T06:15:23.804Z,67.50
2023-05-13T06:17:56.053Z,67.22
2023-05-13T06:20:28.076Z,65.36
2023-05-13T06:23:00.280Z,64.05
2023-05-13T06:25:32.014Z,64.45
2023-05-13T06:28:06.259Z,63.47
2023-05-13T06:30:38.684Z,63.68
2023-05-13T06:33:12.647Z,64.35
2023-05-13T06:35:48.042Z,63.57
2023-05-13T06:38:19.730Z,62.54
2023-05-13T06:40:51.719Z,62.80
2023-05-13T06:43:24.781Z,62.76
2023-05-13T06:45:56.809Z,63.29
2023-05-13T06:48:28.789Z,60.89
2023-05-13T06:51:01.167Z,62.21
2023-05-13T06:53:33.143Z,61.52
2023-05-13T06:56:05.126Z,62.98
2023-05-13T06:58:38.219Z,62.38
2023-05-13T07:01:10.200Z,63.57
2023-05-13T07:03:42.941Z,62.66
2023-05-13T07:06:15.993Z,61.23
2023-05-13T07:08:47.709Z,61.98
2023-05-13T07:11:19.654Z,62.71
2023-05-13T07:13:53.038Z,60.43
2023-05-13T07:16:25.023Z,63.82
2023-05-13T07:18:57.042Z,61.89
2023-05-13T07:21:30.729Z,60.32
2023-05-13T07:24:05.210Z,61.11
2023-05-13T07:26:37.149Z,60.52
2023-05-13T07:29:10.569Z,61.58
2023-05-13T07:31:42.618Z,61.55
2023-05-13T07:34:14.361Z,61.28
2023-05-13T07:36:46.360Z,61.44
2023-05-13T07:39:18.711Z,62.15
2023-05-13T07:41:50.400Z,62.19
2023-05-13T07:44:23.821Z,59.54
2023-05-13T07:46:55.897Z,60.17
2023-05-13T07:49:27.624Z,59.50
2023-05-13T07:51:59.494Z,59.37
2023-05-13T07:54:31.376Z,59.74
2023-05-13T07:57:05.726Z,59.74
2023-05-13T07:59:39.059Z,59.93
2023-05-13T08:02:10.926Z,60.19
2023-05-13T08:04:42.790Z,59.44
2023-05-13T08:07:15.283Z,57.37
2023-05-13T08:09:47.218Z,59.36
2023-05-13T08:12:19.030Z,57.63
2023-05-13T08:14:52.202Z,58.01
2023-05-13T08:17:24.057Z,58.74
2023-05-13T08:19:55.984Z,59.57
2023-05-13T08:22:27.916Z,58.04
2023-05-13T08:25:01.534Z,57.17
2023-05-13T08:27:33.262Z,59.43
2023-05-13T08:30:06.509Z,60.51
2023-05-13T08:32:38.382Z,56.14
2023-05-13T08:35:13.831Z,56.47
2023-05-13T08:37:45.672Z,59.11
2023-05-13T08:40:17.504Z,57.79
2023-05-13T08:42:55.925Z,55.24
2023-05-13T08:45:34.030Z,56.98
2023-05-13T08:48:07.859Z,55.23
2023-05-13T08:50:43.567Z,53.55
2023-05-13T08:53:17.501Z,52.81
2023-05-13T08:55:49.636Z,54.76
2023-05-13T08:58:21.406Z,55.71
2023-05-13T09:00:58.133Z,53.50
2023-05-13T09:03:34.950Z,53.54
2023-05-13T09:06:07.898Z,52.63
2023-05-13T09:08:42.305Z,51.84
2023-05-13T09:11:15.433Z,54.99
2023-05-13T09:13:59.702Z,51.60
2023-05-13T09:16:36.316Z,53.74
2023-05-13T09:19:11.346Z,51.62
2023-05-13T09:21:44.892Z,53.51
2023-05-13T09:24:21.389Z,50.67
2023-05-13T09:26:54.456Z,52.59
2023-05-13T09:29:30.088Z,50.53
2023-05-13T09:32:13.088Z,49.69
2023-05-13T09:34:50.943Z,46.71
2023-05-13T09:37:26.367Z,47.80
2023-05-13T09:39:58.280Z,45.92
2023-05-13T09:42:32.955Z,46.71
2023-05-13T09:45:10.992Z,45.86
2023-05-13T09:47:45.017Z,44.96
2023-05-13T09:50:17.255Z,44.46
2023-05-13T09:52:50.480Z,43.87
2023-05-13T09:55:23.508Z,45.75
2023-05-13T09:57:55.894Z,43.29
2023-05-13T10:00:32.564Z,46.41
2023-05-13T10:03:08.009Z,46.01
2023-05-13T10:05:40.902Z,47.69
2023-05-13T10:08:15.763Z,44.17
2023-05-13T10:10:49.892Z,45.26
2023-05-13T10:13:25.805Z,46.14
2023-05-13T10:15:58.619Z,42.53
2023-05-13T10:18:32.021Z,43.47
2023-05-13T10:21:05.578Z,41.36
2023-05-13T10:23:38.488Z,41.12
2023-05-13T10:26:12.720Z,40.64
2023-05-13T10:28:46.532Z,37.01
2023-05-13T10:31:18.553Z,39.16
2023-05-13T10:33:55.046Z,35.87
2023-05-13T10:36:58.976Z,37.88
2023-05-13T10:39:55.667Z,35.00
2023-05-13T10:42:44.044Z,36.62
2023-05-13T10:45:19.533Z,34.96
2023-05-13T10:47:56.105Z,34.41
2023-05-13T10:50:31.318Z,36.49
2023-05-13T10:53:08.400Z,34.46
2023-05-13T10:55:47.607Z,35.54
2023-05-13T10:58:22.449Z,33.68
2023-05-13T11:00:54.522Z,32.81
2023-05-13T11:03:35.392Z,35.55
2023-05-13T11:06:21.681Z,35.88
2023-05-13T11:08:56.359Z,34.29
2023-05-13T11:11:37.075Z,33.52
2023-05-13T11:14:22.115Z,32.52
2023-05-13T11:17:10.395Z,30.80
2023-05-13T11:19:48.181Z,30.38
2023-05-13T11:22:25.999Z,33.91
2023-05-13T11:25:11.465Z,33.35
2023-05-13T11:27:47.688Z,34.02
2023-05-13T11:30:28.257Z,31.59
2023-05-13T11:33:02.880Z,37.19
2023-05-13T11:35:36.462Z,34.68
2023-05-13T11:38:09.973Z,34.02
2023-05-13T11:40:41.772Z,32.81
2023-05-13T11:43:20.254Z,34.75
2023-05-13T11:45:54.426Z,34.36
2023-05-13T11:48:27.238Z,31.41
2023-05-13T11:51:02.173Z,32.67
2023-05-13T11:53:35.496Z,36.25
2023-05-13T11:56:14.132Z,32.02
2023-05-13T11:58:46.027Z,32.08
2023-05-13T12:01:19.703Z,32.09
2023-05-13T12:03:51.844Z,35.52
2023-05-13T12:06:23.876Z,30.44
2023-05-13T12:08:56.893Z,30.93
2023-05-13T12:11:28.696Z,31.33
2023-05-13T12:14:00.700Z,31.99
2023-05-13T12:16:32.629Z,30.71
2023-05-13T12:19:07.484Z,29.69
2023-05-13T12:21:39.569Z,29.06
2023-05-13T12:24:24.810Z,30.82
2023-05-13T12:27:05.139Z,31.53
2023-05-13T12:29:44.142Z,31.81
2023-05-13T12:32:19.674Z,30.82
2023-05-13T12:34:55.233Z,30.10
2023-05-13T12:37:29.900Z,30.03
2023-05-13T12:40:16.571Z,31.34
2023-05-13T12:42:50.984Z,30.22
2023-05-13T12:45:23.403Z,32.11
2023-05-13T12:47:56.033Z,29.13
2023-05-13T12:50:28.140Z,29.45
2023-05-13T12:53:00.839Z,29.33
2023-05-13T12:55:39.938Z,27.43
2023-05-13T12:58:14.063Z,25.81
2023-05-13T13:00:46.773Z,27.51
2023-05-13T13:03:20.379Z,28.64
2023-05-13T13:05:53.850Z,25.32
2023-05-13T13:08:26.108Z,25.90
2023-05-13T13:10:59.404Z,29.39
2023-05-13T13:13:31.020Z,26.84
2023-05-13T13:16:03.576Z,25.38
2023-05-13T13:18:35.587Z,24.71
2023-05-13T13:21:07.624Z,25.75
2023-05-13T13:23:39.700Z,27.70
2023-05-13T13:26:12.975Z,25.27
2023-05-13T13:28:44.828Z,27.65
2023-05-13T13:31:16.761Z,26.37
2023-05-13T13:33:48.654Z,24.39
2023-05-13T13:36:20.773Z,25.63
2023-05-13T13:38:52.698Z,24.10
2023-05-13T13:41:26.263Z,24.44
2023-05-13T13:43:57.861Z,24.65
2023-05-13T13:46:30.040Z,24.34
2023-05-13T13:49:03.890Z,23.42
2023-05-13T13:51:42.392Z,24.04
2023-05-13T13:54:14.257Z,23.72
2023-05-13T13:56:49.064Z,26.00
2023-05-13T13:59:20.724Z,23.50
2023-05-13T14:01:53.803Z,24.02
2023-05-13T14:04:27.828Z,23.81
2023-05-13T14:06:59.698Z,24.04
2023-05-13T14:09:32.738Z,26.37
2023-05-13T14:12:06.222Z,22.43
2023-05-13T14:14:38.207Z,21.92
2023-05-13T14:17:12.270Z,24.20
2023-05-13T14:19:44.357Z,22.43
2023-05-13T14:22:16.289Z,22.96
2023-05-13T14:24:48.270Z,23.67
2023-05-13T14:27:21.580Z,22.40
2023-05-13T14:29:53.853Z,22.50
2023-05-13T14:32:25.977Z,21.48
2023-05-13T14:34:57.962Z,22.41
2023-05-13T14:37:29.895Z,22.44
2023-05-13T14:40:01.627Z,20.38
2023-05-13T14:42:34.676Z,22.57
2023-05-13T14:45:07.856Z,20.90
2023-05-13T14:47:39.761Z,20.86
2023-05-13T14:50:15.022Z,25.43
2023-05-13T14:52:46.839Z,22.58
2023-05-13T14:55:18.760Z,21.10
2023-05-13T14:57:52.042Z,24.56
2023-05-13T15:00:23.924Z,21.07
2023-05-13T15:02:55.815Z,20.80
2023-05-13T15:05:27.816Z,21.76
2023-05-13T15:08:01.300Z,22.43
2023-05-13T15:10:33.156Z,21.86
2023-05-13T15:13:06.258Z,21.71
2023-05-13T15:15:38.328Z,22.11
2023-05-13T15:18:10.831Z,21.74
2023-05-13T15:20:42.629Z,21.86
2023-05-13T15:23:14.384Z,21.85
2023-05-13T15:25:46.864Z,21.76
2023-05-13T15:28:20.244Z,21.47
2023-05-13T15:30:52.189Z,22.15
2023-05-13T15:33:23.920Z,21.42
2023-05-13T15:35:56.791Z,21.40
2023-05-13T15:38:28.807Z,22.36
2023-05-13T15:41:01.660Z,21.33
2023-05-13T15:43:37.079Z,20.62
2023-05-13T15:46:09.974Z,24.50
2023-05-13T15:48:42.035Z,22.29
2023-05-13T15:51:13.781Z,20.72
2023-05-13T15:53:45.815Z,21.13
2023-05-13T15:56:17.827Z,20.93
2023-05-13T15:58:52.795Z,21.48
2023-05-13T16:01:24.864Z,21.34
2023-05-13T16:03:56.558Z,20.34
2023-05-13T16:06:28.246Z,21.17
2023-05-13T16:09:01.836Z,21.23
2023-05-13T16:11:33.941Z,21.34
2023-05-13T16:14:07.560Z,22.16
2023-05-13T16:16:39.500Z,22.08
2023-05-13T16:19:11.596Z,21.32
2023-05-13T16:21:45.312Z,23.44
2023-05-13T16:24:17.243Z,22.40
2023-05-13T16:26:49.308Z,23.65
2023-05-13T16:29:22.371Z,24.68
2023-05-13T16:31:54.390Z,23.00
2023-05-13T16:34:26.567Z,23.59
2023-05-13T16:36:59.227Z,23.28
2023-05-13T16:39:31.139Z,23.69
2023-05-13T16:42:03.123Z,24.25
2023-05-13T16:44:36.208Z,23.61
2023-05-13T16:47:09.693Z,23.30
2023-05-13T16:49:42.566Z,24.23
2023-05-13T16:52:14.492Z,23.38
2023-05-13T16:54:48.427Z,23.25
2023-05-13T16:57:22.249Z,24.26
2023-05-13T16:59:56.156Z,24.45
2023-05-13T17:02:27.960Z,25.06
2023-05-13T17:04:59.663Z,24.30
2023-05-13T17:07:31.596Z,24.56
2023-05-13T17:10:03.668Z,24.03
2023-05-13T17:12:35.299Z,24.45
2023-05-13T17:15:08.293Z,25.14
2023-05-13T17:17:40.386Z,25.89
2023-05-13T17:20:15.377Z,25.28
2023-05-13T17:22:47.505Z,25.33
2023-05-13T17:25:19.994Z,26.86
2023-05-13T17:27:52.035Z,25.88
2023-05-13T17:30:25.388Z,26.51
2023-05-13T17:32:57.332Z,26.75
2023-05-13T17:35:29.226Z,25.60
2023-05-13T17:38:01.300Z,26.74
2023-05-13T17:40:32.942Z,26.98
2023-05-13T17:43:04.848Z,27.75
2023-05-13T17:45:38.261Z,27.60
2023-05-13T17:48:11.720Z,27.28
2023-05-13T17:50:43.350Z,27.71
2023-05-13T17:53:15.095Z,27.34
2023-05-13T17:55:47.643Z,27.12
2023-05-13T17:58:19.687Z,28.52
2023-05-13T18:00:53.284Z,29.43
2023-05-13T18:03:25.272Z,29.34
2023-05-13T18:05:57.065Z,28.88
2023-05-13T18:08:28.847Z,29.20
2023-05-13T18:11:00.808Z,28.43
2023-05-13T18:13:32.691Z,29.42
2023-05-13T18:16:06.555Z,29.59
2023-05-13T18:18:38.581Z,30.29
2023-05-13T18:21:10.653Z,30.81
2023-05-13T18:23:44.124Z,31.29
2023-05-13T18:26:16.106Z,32.00
2023-05-13T18:28:48.085Z,31.53
2023-05-13T18:31:21.674Z,31.65
2023-05-13T18:33:53.404Z,32.28
2023-05-13T18:36:26.902Z,32.32
2023-05-13T18:38:59.018Z,32.81
2023-05-13T18:41:31.553Z,32.63
2023-05-13T18:44:03.357Z,32.83
2023-05-13T18:46:37.001Z,33.87
2023-05-13T18:49:09.169Z,34.24
2023-05-13T18:51:41.229Z,33.99
2023-05-13T18:54:13.234Z,33.97
2023-05-13T18:56:45.137Z,34.38
2023-05-13T18:59:17.888Z,35.08
2023-05-13T19:01:51.065Z,34.92
2023-05-13T19:04:22.899Z,34.85
2023-05-13T19:06:54.746Z,34.92
2023-05-13T19:09:26.704Z,35.25
2023-05-13T19:11:58.630Z,34.74
2023-05-13T19:14:30.637Z,35.79
2023-05-13T19:17:03.972Z,35.29
2023-05-13T19:19:35.908Z,35.83
2023-05-13T19:22:07.767Z,36.29
2023-05-13T19:24:39.619Z,36.83
2023-05-13T19:27:12.406Z,36.76
2023-05-13T19:29:44.396Z,37.32
2023-05-13T19:32:17.382Z,37.53
2023-05-13T19:34:49.184Z,36.53
2023-05-13T19:37:21.066Z,37.53
2023-05-13T19:39:52.969Z,37.92
2023-05-13T19:42:24.796Z,36.84
2023-05-13T19:44:56.624Z,38.45
2023-05-13T19:47:30.589Z,38.07
2023-05-13T19:50:02.715Z,39.63
2023-05-13T19:52:34.560Z,39.58
2023-05-13T19:55:06.749Z,39.44
2023-05-13T19:57:40.054Z,40.06
2023-05-13T20:00:15.252Z,40.53
2023-05-13T20:02:48.675Z,40.90
2023-05-13T20:05:20.402Z,39.12
2023-05-13T20:07:52.278Z,39.83
2023-05-13T20:10:24.423Z,39.55
2023-05-13T20:12:56.696Z,40.39
2023-05-13T20:15:28.309Z,40.14
2023-05-13T20:18:01.374Z,40.69
2023-05-13T20:20:33.282Z,41.64
2023-05-13T20:23:05.160Z,41.52
2023-05-13T20:25:37.030Z,41.53
2023-05-13T20:28:08.890Z,41.37
2023-05-13T20:30:43.560Z,42.01
2023-05-13T20:33:16.634Z,42.21
2023-05-13T20:35:48.968Z,42.57
2023-05-13T20:38:21.188Z,43.62
2023-05-13T20:40:53.138Z,44.42
2023-05-13T20:43:25.043Z,44.88
2023-05-13T20:45:57.449Z,44.91
2023-05-13T20:48:31.931Z,44.33
2023-05-13T20:51:06.831Z,43.93
2023-05-13T20:53:38.685Z,43.07
2023-05-13T20:56:10.783Z,43.18
2023-05-13T20:58:42.351Z,42.68
2023-05-13T21:01:14.184Z,42.69
2023-05-13T21:03:49.981Z,43.02
2023-05-13T21:06:21.813Z,42.59
2023-05-13T21:08:54.094Z,43.46
2023-05-13T21:11:25.948Z,43.63
2023-05-13T21:13:57.795Z,42.84
2023-05-13T21:16:30.031Z,43.91
2023-05-13T21:19:03.346Z,42.89
2023-05-13T21:21:35.174Z,44.04
2023-05-13T21:24:07.084Z,43.81
2023-05-13T21:26:39.051Z,43.74
2023-05-13T21:29:10.889Z,44.37
2023-05-13T21:31:42.800Z,44.36
2023-05-13T21:34:15.881Z,44.66
2023-05-13T21:36:49.666Z,44.78
2023-05-13T21:39:23.080Z,45.53
2023-05-13T21:41:54.880Z,45.97
2023-05-13T21:44:26.742Z,46.45
2023-05-13T21:46:58.676Z,46.27
2023-05-13T21:49:31.928Z,47.19
2023-05-13T21:52:03.765Z,47.25
2023-05-13T21:54:35.621Z,47.67
2023-05-13T21:57:07.646Z,47.71
2023-05-13T21:59:39.476Z,48.60
2023-05-13T22:02:11.286Z,48.95
2023-05-13T22:04:44.267Z,48.86
2023-05-13T22:07:16.176Z,49.73
2023-05-13T22:09:49.110Z,49.82
2023-05-13T22:12:22.037Z,50.08
2023-05-13T22:14:55.650Z,50.81
2023-05-13T22:17:27.738Z,51.27
2023-05-13T22:20:01.313Z,50.95
2023-05-13T22:22:33.120Z,51.33
2023-05-13T22:25:04.995Z,52.05
2023-05-13T22:27:37.003Z,52.04
2023-05-13T22:30:10.797Z,52.17
2023-05-13T22:32:42.577Z,51.84
2023-05-13T22:35:16.592Z,52.87
2023-05-13T22:37:50.096Z,52.62
2023-05-13T22:40:22.103Z,53.01
2023-05-13T22:42:53.806Z,53.73
2023-05-13T22:45:26.047Z,53.63
2023-05-13T22:47:57.749Z,54.21
2023-05-13T22:50:31.081Z,54.98
2023-05-13T22:53:03.553Z,54.93
2023-05-13T22:55:35.378Z,55.17
2023-05-13T22:58:07.226Z,55.75
2023-05-13T23:00:39.099Z,55.94
2023-05-13T23:03:10.949Z,56.40
2023-05-13T23:05:43.977Z,56.49
2023-05-13T23:08:15.818Z,57.08
2023-05-13T23:10:47.689Z,57.19
2023-05-13T23:13:19.488Z,57.72
2023-05-13T23:15:51.314Z,57.65
2023-05-13T23:18:23.301Z,57.99
2023-05-13T23:20:58.496Z,58.30
2023-05-13T23:23:30.263Z,58.46
2023-05-13T23:26:02.117Z,58.97
2023-05-13T23:28:34.156Z,58.56
2023-05-13T23:31:06.112Z,59.32
2023-05-13T23:33:37.952Z,59.50
2023-05-13T23:36:11.439Z,59.71
2023-05-13T23:38:43.251Z,59.78
2023-05-13T23:41:15.098Z,60.41
2023-05-13T23:43:47.090Z,61.01
2023-05-13T23:46:18.971Z,61.11
2023-05-13T23:48:50.754Z,60.58
2023-05-13T23:51:23.713Z,61.75
2023-05-13T23:53:55.574Z,60.20
2023-05-13T23:56:27.447Z,61.30
2023-05-13T23:58:59.351Z,62.06
